createdAt,value
2019-03-13T00:00:07.272Z,20.90
2019-03-13T00:02:55.028Z,20.90
2019-03-13T00:05:41.269Z,20.90
2019-03-13T00:08:27.830Z,20.90
2019-03-13T00:11:14.135Z,20.90
2019-03-13T00:14:01.537Z,20.90
2019-03-13T00:16:47.899Z,20.90
2019-03-13T00:19:34.767Z,20.90
2019-03-13T00:22:21.113Z,20.90
2019-03-13T00:25:07.775Z,20.80
2019-03-13T00:27:54.046Z,20.90
2019-03-13T00:30:40.371Z,20.80
2019-03-13T00:33:26.967Z,20.80
2019-03-13T00:36:13.488Z,20.80
2019-03-13T00:38:59.237Z,20.80
2019-03-13T00:41:46.515Z,20.80
2019-03-13T00:44:32.470Z,20.80
2019-03-13T00:47:18.898Z,20.80
2019-03-13T00:50:05.525Z,20.80
2019-03-13T00:52:51.765Z,20.80
2019-03-13T00:55:38.195Z,20.80
2019-03-13T00:58:25.463Z,20.80
2019-03-13T01:01:37.047Z,20.90
2019-03-13T01:04:45.288Z,20.80
2019-03-13T01:07:31.231Z,20.80
2019-03-13T01:10:17.578Z,20.80
2019-03-13T01:13:03.781Z,20.80
2019-03-13T01:15:50.079Z,20.80
2019-03-13T01:18:36.355Z,20.80
2019-03-13T01:21:23.345Z,20.80
2019-03-13T01:24:09.595Z,20.80
2019-03-13T01:26:55.820Z,20.80
2019-03-13T01:29:42.126Z,20.80
2019-03-13T01:32:37.673Z,20.80
2019-03-13T01:35:40.551Z,20.80
2019-03-13T01:38:26.952Z,20.80
2019-03-13T01:41:13.375Z,20.80
2019-03-13T01:44:01.136Z,20.80
2019-03-13T01:46:47.345Z,20.80
2019-03-13T01:49:33.722Z,20.80
2019-03-13T01:52:20.180Z,20.80
2019-03-13T01:55:06.903Z,20.80
2019-03-13T01:57:53.250Z,20.80
2019-03-13T02:00:39.679Z,20.70
2019-03-13T02:03:25.899Z,20.80
2019-03-13T02:06:12.640Z,20.80
2019-03-13T02:08:58.896Z,20.80
2019-03-13T02:11:45.388Z,20.80
2019-03-13T02:14:31.980Z,20.80
2019-03-13T02:17:18.327Z,20.80
2019-03-13T02:20:07.303Z,20.80
2019-03-13T02:22:53.568Z,20.80
2019-03-13T02:25:41.563Z,20.90
2019-03-13T02:28:30.086Z,20.90
2019-03-13T02:31:18.284Z,20.90
2019-03-13T02:34:06.573Z,20.90
2019-03-13T02:36:54.537Z,20.90
2019-03-13T02:39:42.479Z,20.90
2019-03-13T02:42:30.591Z,20.90
2019-03-13T02:45:19.126Z,20.90
2019-03-13T02:48:05.424Z,20.90
2019-03-13T02:50:53.372Z,20.90
2019-03-13T02:53:39.649Z,20.90
2019-03-13T02:56:27.662Z,21.00
2019-03-13T02:59:15.561Z,21.00
2019-03-13T03:02:23.856Z,20.90
2019-03-13T03:05:10.472Z,20.90
2019-03-13T03:07:58.804Z,20.90
2019-03-13T03:10:46.727Z,20.90
2019-03-13T03:13:34.808Z,20.90
2019-03-13T03:16:23.003Z,20.90
2019-03-13T03:19:11.357Z,21.00
2019-03-13T03:21:59.212Z,20.90
2019-03-13T03:24:47.304Z,20.90
2019-03-13T03:27:35.904Z,20.90
2019-03-13T03:30:24.078Z,20.90
2019-03-13T03:33:10.337Z,20.90
2019-03-13T03:35:58.842Z,20.90
2019-03-13T03:38:47.148Z,20.90
2019-03-13T03:41:34.283Z,20.90
2019-03-13T03:44:22.146Z,21.00
2019-03-13T03:47:08.859Z,20.90
2019-03-13T03:49:57.179Z,21.00
2019-03-13T03:52:45.865Z,20.90
2019-03-13T03:55:33.974Z,20.90
2019-03-13T03:58:22.867Z,20.90
2019-03-13T04:01:11.071Z,20.90
2019-03-13T04:03:59.252Z,20.90
2019-03-13T04:06:45.895Z,20.90
2019-03-13T04:09:34.424Z,20.90
2019-03-13T04:12:22.726Z,20.90
2019-03-13T04:15:09.581Z,20.90
2019-03-13T04:17:57.776Z,20.90
2019-03-13T04:20:46.421Z,20.90
2019-03-13T04:23:34.296Z,20.90
2019-03-13T04:26:22.077Z,20.90
2019-03-13T04:29:10.174Z,20.90
2019-03-13T04:31:58.311Z,20.90
2019-03-13T04:34:46.461Z,20.90
2019-03-13T04:37:34.876Z,20.90
2019-03-13T04:40:22.692Z,20.90
2019-03-13T04:43:11.930Z,20.90
2019-03-13T04:45:58.513Z,20.90
2019-03-13T04:48:47.596Z,20.90
2019-03-13T04:51:35.597Z,20.90
2019-03-13T04:54:23.665Z,20.90
2019-03-13T04:57:11.472Z,20.90
2019-03-13T05:00:00.777Z,20.90
2019-03-13T05:02:48.506Z,20.90
2019-03-13T05:05:41.315Z,20.90
2019-03-13T05:09:00.775Z,20.90
2019-03-13T05:11:49.167Z,20.90
2019-03-13T05:14:35.435Z,20.90
2019-03-13T05:17:23.960Z,20.90
2019-03-13T05:20:13.832Z,20.90
2019-03-13T05:23:01.648Z,20.90
2019-03-13T05:25:49.957Z,20.90
2019-03-13T05:28:36.296Z,20.90
2019-03-13T05:31:24.583Z,21.00
2019-03-13T05:34:12.523Z,20.90
2019-03-13T05:37:00.740Z,20.90
2019-03-13T05:39:49.204Z,21.00
2019-03-13T05:42:37.132Z,21.00
2019-03-13T05:45:25.174Z,21.00
2019-03-13T05:48:11.330Z,21.00
2019-03-13T05:50:59.155Z,21.00
2019-03-13T05:53:47.293Z,21.00
2019-03-13T05:56:33.533Z,21.00
2019-03-13T05:59:21.841Z,21.00
2019-03-13T06:02:10.767Z,21.10
2019-03-13T06:04:58.685Z,21.10
2019-03-13T06:07:47.136Z,21.10
2019-03-13T06:10:34.416Z,21.10
2019-03-13T06:13:23.243Z,21.20
2019-03-13T06:16:11.073Z,21.20
2019-03-13T06:18:59.631Z,21.20
2019-03-13T06:21:45.964Z,21.20
2019-03-13T06:24:32.628Z,21.20
2019-03-13T06:27:21.107Z,21.30
2019-03-13T06:30:09.320Z,21.30
2019-03-13T06:32:55.668Z,21.30
2019-03-13T06:35:42.044Z,21.40
2019-03-13T06:38:29.967Z,21.60
2019-03-13T06:41:18.427Z,21.70
2019-03-13T06:44:04.779Z,21.70
2019-03-13T06:46:52.900Z,21.80
2019-03-13T06:49:41.212Z,21.70
2019-03-13T06:52:27.707Z,21.70
2019-03-13T06:55:15.656Z,21.60
2019-03-13T06:58:03.619Z,21.60
2019-03-13T07:01:16.437Z,21.60
2019-03-13T07:04:24.344Z,21.50
2019-03-13T07:07:47.077Z,21.50
2019-03-13T07:10:54.803Z,21.40
2019-03-13T07:13:48.091Z,21.40
2019-03-13T07:16:59.172Z,21.40
2019-03-13T07:19:58.727Z,21.30
2019-03-13T07:22:58.284Z,21.30
2019-03-13T07:26:06.363Z,21.30
2019-03-13T07:29:12.928Z,21.20
2019-03-13T07:32:09.622Z,21.20
2019-03-13T07:35:16.141Z,21.20
2019-03-13T07:38:18.987Z,21.20
2019-03-13T07:41:36.619Z,21.20
2019-03-13T07:44:42.819Z,21.20
2019-03-13T07:47:41.467Z,21.20
2019-03-13T07:50:47.739Z,21.20
2019-03-13T07:53:53.455Z,21.20
2019-03-13T07:56:49.220Z,21.40
2019-03-13T07:59:55.029Z,21.50
2019-03-13T08:03:01.548Z,21.60
2019-03-13T08:06:16.800Z,21.70
2019-03-13T08:09:25.818Z,21.80
2019-03-13T08:12:31.720Z,21.80
2019-03-13T08:15:37.317Z,21.70
2019-03-13T08:19:01.452Z,21.70
2019-03-13T08:22:07.258Z,21.60
2019-03-13T08:25:16.052Z,21.60
2019-03-13T08:28:35.879Z,21.50
2019-03-13T08:31:43.557Z,21.50
2019-03-13T08:34:51.891Z,21.50
2019-03-13T08:37:48.685Z,21.40
2019-03-13T08:40:41.956Z,21.40
2019-03-13T08:43:47.820Z,21.40
2019-03-13T08:46:45.687Z,21.40
2019-03-13T08:49:49.863Z,21.40
2019-03-13T08:53:09.228Z,21.40
2019-03-13T08:56:06.348Z,21.40
2019-03-13T08:59:25.693Z,21.40
2019-03-13T09:02:31.276Z,21.40
2019-03-13T09:05:35.908Z,21.40
2019-03-13T09:08:36.208Z,21.40
2019-03-13T09:11:45.247Z,21.40
2019-03-13T09:14:35.941Z,21.50
2019-03-13T09:17:39.680Z,21.50
2019-03-13T09:20:47.335Z,21.50
2019-03-13T09:23:53.230Z,21.60
2019-03-13T09:27:06.529Z,21.60
2019-03-13T09:30:02.408Z,21.60
2019-03-13T09:33:09.243Z,21.60
2019-03-13T09:36:23.326Z,21.70
2019-03-13T09:39:21.911Z,21.70
2019-03-13T09:42:19.802Z,21.70
2019-03-13T09:45:14.763Z,21.70
2019-03-13T09:48:39.901Z,21.70
2019-03-13T09:51:45.352Z,21.70
2019-03-13T09:54:44.120Z,21.70
2019-03-13T09:58:02.534Z,21.70
2019-03-13T10:01:09.980Z,21.70
2019-03-13T10:04:14.565Z,21.70
2019-03-13T10:07:22.396Z,21.70
2019-03-13T10:10:21.110Z,21.70
2019-03-13T10:13:19.484Z,21.60
2019-03-13T10:16:11.938Z,21.70
2019-03-13T10:19:22.179Z,21.70
2019-03-13T10:22:23.951Z,21.80
2019-03-13T10:25:29.820Z,21.80
2019-03-13T10:28:35.600Z,21.80
2019-03-13T10:31:40.011Z,21.80
2019-03-13T10:34:33.574Z,21.80
2019-03-13T10:37:46.763Z,21.80
2019-03-13T10:40:54.831Z,21.80
2019-03-13T10:43:49.599Z,21.80
2019-03-13T10:46:59.825Z,21.80
2019-03-13T10:49:54.268Z,21.80
2019-03-13T10:53:17.219Z,21.80
2019-03-13T10:56:21.231Z,21.80
2019-03-13T10:59:20.551Z,21.80
2019-03-13T11:02:24.775Z,21.80
2019-03-13T11:05:34.081Z,21.80
2019-03-13T11:08:31.373Z,21.90
2019-03-13T11:11:33.115Z,21.90
2019-03-13T11:14:35.316Z,21.90
2019-03-13T11:17:36.745Z,21.90
2019-03-13T11:20:43.011Z,21.90
2019-03-13T11:23:56.583Z,21.90
2019-03-13T11:26:53.203Z,21.90
2019-03-13T11:29:56.326Z,21.80
2019-03-13T11:33:05.149Z,21.80
2019-03-13T11:36:05.268Z,21.80
2019-03-13T11:39:12.795Z,21.80
2019-03-13T11:42:20.536Z,21.70
2019-03-13T11:45:30.546Z,21.70
2019-03-13T11:48:46.635Z,21.70
2019-03-13T11:51:52.713Z,21.70
2019-03-13T11:55:00.382Z,21.60
2019-03-13T11:58:02.847Z,21.60
2019-03-13T12:01:17.272Z,21.60
2019-03-13T12:04:21.662Z,21.60
2019-03-13T12:07:39.079Z,21.60
2019-03-13T12:10:40.005Z,21.50
2019-03-13T12:13:51.807Z,21.60
2019-03-13T12:16:57.921Z,21.60
2019-03-13T12:20:06.811Z,21.60
2019-03-13T12:23:04.483Z,21.70
2019-03-13T12:26:18.335Z,21.70
2019-03-13T12:29:14.635Z,21.80
2019-03-13T12:32:20.280Z,21.90
2019-03-13T12:35:28.086Z,22.00
2019-03-13T12:38:26.527Z,22.00
2019-03-13T12:41:37.327Z,22.10
2019-03-13T12:44:40.588Z,22.10
2019-03-13T12:47:42.660Z,22.10
2019-03-13T12:50:52.876Z,22.10
2019-03-13T12:54:15.747Z,22.00
2019-03-13T12:57:31.595Z,22.00
2019-03-13T13:00:36.615Z,22.00
2019-03-13T13:03:37.881Z,22.00
2019-03-13T13:06:38.164Z,22.00
2019-03-13T13:09:42.515Z,22.00
2019-03-13T13:12:39.540Z,22.00
2019-03-13T13:15:50.956Z,22.00
2019-03-13T13:18:51.406Z,22.00
2019-03-13T13:21:37.323Z,21.90
2019-03-13T13:24:23.600Z,21.90
2019-03-13T13:27:11.526Z,21.90
2019-03-13T13:29:58.310Z,21.90
2019-03-13T13:32:44.929Z,21.90
2019-03-13T13:35:31.306Z,21.90
2019-03-13T13:38:17.791Z,21.90
2019-03-13T13:41:04.928Z,21.90
2019-03-13T13:43:50.917Z,21.90
2019-03-13T13:46:38.915Z,21.90
2019-03-13T13:49:25.210Z,21.90
2019-03-13T13:52:11.523Z,21.90
2019-03-13T13:54:57.928Z,22.00
2019-03-13T13:57:44.582Z,22.00
2019-03-13T14:00:30.827Z,22.00
2019-03-13T14:03:17.283Z,22.00
2019-03-13T14:06:03.528Z,22.00
2019-03-13T14:08:49.383Z,22.00
2019-03-13T14:11:35.868Z,22.00
2019-03-13T14:14:22.695Z,21.90
2019-03-13T14:17:09.027Z,21.90
2019-03-13T14:19:55.701Z,21.90
2019-03-13T14:22:43.683Z,21.80
2019-03-13T14:25:30.060Z,21.80
2019-03-13T14:28:16.531Z,21.80
2019-03-13T14:31:03.866Z,21.80
2019-03-13T14:33:50.708Z,21.80
2019-03-13T14:36:37.604Z,21.80
2019-03-13T14:39:23.787Z,21.80
2019-03-13T14:42:10.205Z,21.80
2019-03-13T14:44:56.653Z,21.80
2019-03-13T14:47:43.186Z,21.80
2019-03-13T14:50:29.687Z,21.70
2019-03-13T14:53:16.215Z,21.70
2019-03-13T14:56:02.415Z,21.70
2019-03-13T14:58:48.763Z,21.70
2019-03-13T15:01:35.025Z,21.60
2019-03-13T15:04:21.263Z,21.60
2019-03-13T15:07:07.672Z,21.60
2019-03-13T15:09:53.999Z,21.60
2019-03-13T15:12:42.947Z,21.50
2019-03-13T15:15:28.328Z,21.50
2019-03-13T15:18:14.744Z,21.50
2019-03-13T15:21:01.012Z,21.50
2019-03-13T15:23:47.321Z,21.50
2019-03-13T15:26:34.907Z,21.50
2019-03-13T15:29:21.167Z,21.50
2019-03-13T15:32:07.396Z,21.40
2019-03-13T15:34:53.668Z,21.40
2019-03-13T15:37:40.918Z,21.40
2019-03-13T15:40:27.195Z,21.40
2019-03-13T15:43:13.387Z,21.40
2019-03-13T15:45:59.668Z,21.40
2019-03-13T15:48:45.680Z,21.40
2019-03-13T15:51:31.703Z,21.40
2019-03-13T15:54:17.775Z,21.40
2019-03-13T15:57:04.447Z,21.40
2019-03-13T15:59:50.501Z,21.40
2019-03-13T16:02:36.880Z,21.40
2019-03-13T16:05:23.295Z,21.40
2019-03-13T16:08:09.532Z,21.40
2019-03-13T16:10:55.592Z,21.40
2019-03-13T16:13:41.894Z,21.30
2019-03-13T16:16:28.270Z,21.30
2019-03-13T16:19:14.739Z,21.30
2019-03-13T16:22:01.728Z,21.30
2019-03-13T16:24:49.072Z,21.30
2019-03-13T16:27:35.856Z,21.30
2019-03-13T16:30:23.485Z,21.30
2019-03-13T16:33:09.751Z,21.30
2019-03-13T16:35:56.263Z,21.30
2019-03-13T16:38:42.800Z,21.30
2019-03-13T16:41:28.553Z,21.30
2019-03-13T16:44:15.187Z,21.30
2019-03-13T16:47:01.365Z,21.30
2019-03-13T16:49:47.896Z,21.30
2019-03-13T16:52:34.286Z,21.30
2019-03-13T16:55:20.684Z,21.30
2019-03-13T16:58:07.071Z,21.30
2019-03-13T17:00:52.899Z,21.20
2019-03-13T17:03:39.296Z,21.20
2019-03-13T17:06:25.692Z,21.20
2019-03-13T17:09:12.205Z,21.20
2019-03-13T17:12:00.235Z,21.20
2019-03-13T17:14:46.477Z,21.20
2019-03-13T17:17:33.559Z,21.20
2019-03-13T17:20:21.925Z,21.20
2019-03-13T17:23:08.088Z,21.20
2019-03-13T17:25:54.415Z,21.20
2019-03-13T17:28:40.659Z,21.20
2019-03-13T17:31:26.849Z,21.20
2019-03-13T17:34:13.336Z,21.20
2019-03-13T17:36:59.418Z,21.20
2019-03-13T17:39:45.569Z,21.20
2019-03-13T17:42:32.041Z,21.20
2019-03-13T17:45:19.375Z,21.20
2019-03-13T17:48:06.708Z,21.20
2019-03-13T17:50:52.875Z,21.10
2019-03-13T17:53:39.136Z,21.10
2019-03-13T17:56:25.631Z,21.10
2019-03-13T17:59:12.012Z,21.10
2019-03-13T18:01:58.894Z,21.10
2019-03-13T18:04:46.168Z,21.10
2019-03-13T18:07:32.644Z,21.10
2019-03-13T18:10:19.031Z,21.10
2019-03-13T18:13:05.275Z,21.10
2019-03-13T18:15:51.678Z,21.10
2019-03-13T18:18:37.931Z,21.10
2019-03-13T18:21:24.264Z,21.10
2019-03-13T18:24:10.912Z,21.10
2019-03-13T18:26:57.168Z,21.10
2019-03-13T18:29:43.096Z,21.10
2019-03-13T18:32:41.095Z,21.10
2019-03-13T18:35:17.931Z,21.10
2019-03-13T18:38:04.183Z,21.10
2019-03-13T18:40:50.472Z,21.10
2019-03-13T18:43:36.912Z,21.10
2019-03-13T18:46:23.527Z,21.10
2019-03-13T18:49:09.217Z,21.10
2019-03-13T18:51:55.612Z,21.10
2019-03-13T18:54:42.019Z,21.10
2019-03-13T18:57:28.320Z,21.10
2019-03-13T19:00:22.876Z,21.10
2019-03-13T19:03:09.183Z,21.10
2019-03-13T19:05:55.437Z,21.10
2019-03-13T19:08:42.364Z,21.10
2019-03-13T19:11:28.720Z,21.10
2019-03-13T19:14:15.063Z,21.10
2019-03-13T19:17:02.572Z,21.10
2019-03-13T19:19:49.055Z,21.00
2019-03-13T19:22:34.811Z,21.10
2019-03-13T19:25:20.779Z,21.10
2019-03-13T19:28:07.062Z,21.10
2019-03-13T19:30:53.538Z,21.10
2019-03-13T19:33:39.727Z,21.10
2019-03-13T19:36:26.084Z,21.10
2019-03-13T19:39:12.620Z,21.10
2019-03-13T19:41:59.000Z,21.10
2019-03-13T19:44:45.347Z,21.00
2019-03-13T19:47:31.896Z,21.00
2019-03-13T19:50:18.197Z,21.00
2019-03-13T19:53:04.924Z,21.00
2019-03-13T19:55:51.444Z,21.00
2019-03-13T19:58:37.914Z,21.00
2019-03-13T20:01:24.336Z,21.00
2019-03-13T20:04:10.745Z,21.00
2019-03-13T20:06:57.948Z,21.00
2019-03-13T20:09:43.916Z,21.00
2019-03-13T20:12:30.368Z,21.00
2019-03-13T20:15:18.266Z,21.10
2019-03-13T20:18:04.884Z,21.00
2019-03-13T20:20:51.316Z,21.10
2019-03-13T20:23:38.073Z,21.00
2019-03-13T20:26:24.356Z,21.00
2019-03-13T20:29:10.688Z,21.10
2019-03-13T20:31:57.207Z,21.10
2019-03-13T20:34:43.352Z,21.00
2019-03-13T20:37:29.911Z,21.00
2019-03-13T20:40:18.107Z,21.00
2019-03-13T20:43:04.141Z,21.00
2019-03-13T20:45:51.603Z,21.00
2019-03-13T20:48:37.839Z,21.00
2019-03-13T20:51:23.756Z,21.00
2019-03-13T20:54:11.186Z,21.00
2019-03-13T20:56:57.522Z,21.00
2019-03-13T20:59:43.788Z,21.00
2019-03-13T21:02:29.713Z,21.00
2019-03-13T21:05:16.495Z,21.00
2019-03-13T21:08:03.050Z,21.00
2019-03-13T21:10:49.495Z,21.00
2019-03-13T21:13:35.764Z,21.00
2019-03-13T21:16:21.850Z,21.00
2019-03-13T21:19:08.123Z,21.00
2019-03-13T21:21:54.911Z,21.00
2019-03-13T21:24:41.236Z,21.00
2019-03-13T21:27:27.591Z,21.00
2019-03-13T21:30:19.677Z,21.00
2019-03-13T21:33:05.919Z,21.00
2019-03-13T21:35:52.279Z,21.00
2019-03-13T21:38:38.860Z,21.00
2019-03-13T21:41:26.181Z,21.00
2019-03-13T21:44:12.809Z,21.00
2019-03-13T21:46:59.043Z,21.00
2019-03-13T21:49:45.588Z,21.00
2019-03-13T21:52:32.200Z,21.00
2019-03-13T21:55:18.949Z,21.00
2019-03-13T21:58:05.211Z,21.00
2019-03-13T22:00:51.633Z,21.00
2019-03-13T22:03:37.979Z,21.00
2019-03-13T22:06:29.084Z,21.00
2019-03-13T22:09:12.103Z,21.00
2019-03-13T22:11:59.382Z,21.00
2019-03-13T22:14:45.768Z,21.00
2019-03-13T22:17:32.414Z,21.00
2019-03-13T22:20:19.158Z,21.00
2019-03-13T22:23:05.448Z,21.00
2019-03-13T22:25:51.398Z,21.00
2019-03-13T22:28:37.708Z,21.00
2019-03-13T22:31:24.044Z,21.00
2019-03-13T22:34:10.547Z,21.00
2019-03-13T22:36:56.819Z,21.00
2019-03-13T22:39:42.736Z,21.00
2019-03-13T22:42:30.815Z,21.00
2019-03-13T22:45:17.417Z,21.00
2019-03-13T22:48:03.347Z,21.00
2019-03-13T22:50:50.044Z,21.00
2019-03-13T22:53:36.138Z,21.00
2019-03-13T22:56:22.020Z,21.00
2019-03-13T22:59:08.253Z,21.00
2019-03-13T23:01:54.962Z,21.00
2019-03-13T23:04:41.575Z,21.00
2019-03-13T23:07:29.167Z,21.00
2019-03-13T23:10:30.397Z,21.00
2019-03-13T23:13:17.437Z,21.00
2019-03-13T23:16:04.576Z,21.00
2019-03-13T23:18:50.955Z,21.00
2019-03-13T23:21:37.164Z,21.00
2019-03-13T23:24:23.255Z,21.00
2019-03-13T23:27:09.575Z,21.00
2019-03-13T23:29:56.059Z,21.00
2019-03-13T23:32:42.271Z,21.00
2019-03-13T23:35:28.967Z,21.00
2019-03-13T23:38:15.469Z,21.00
2019-03-13T23:41:02.168Z,21.00
2019-03-13T23:43:48.478Z,21.00
2019-03-13T23:46:35.584Z,20.90
2019-03-13T23:49:21.533Z,20.90
2019-03-13T23:52:07.820Z,21.00
2019-03-13T23:54:54.238Z,20.90
2019-03-13T23:57:41.016Z,21.00
